createdAt,value
2019-02-14T00:00:46.097Z,1027.58
2019-02-14T00:01:45.982Z,1027.60
2019-02-14T00:02:46.002Z,1027.65
2019-02-14T00:03:45.929Z,1027.61
2019-02-14T00:04:47.547Z,1027.63
2019-02-14T00:05:45.919Z,1027.61
2019-02-14T00:06:45.831Z,1027.61
2019-02-14T00:07:45.831Z,1027.55
2019-02-14T00:08:45.771Z,1027.57
2019-02-14T00:09:45.849Z,1027.58
2019-02-14T00:10:45.726Z,1027.58
2019-02-14T00:11:45.754Z,1027.62
2019-02-14T00:12:45.645Z,1027.66
2019-02-14T00:13:46.691Z,1027.65
2019-02-14T00:14:45.580Z,1027.61
2019-02-14T00:15:45.576Z,1027.66
2019-02-14T00:16:45.516Z,1027.62
2019-02-14T00:17:45.628Z,1027.59
2019-02-14T00:18:45.462Z,1027.60
2019-02-14T00:19:45.501Z,1027.62
2019-02-14T00:20:45.396Z,1027.61
2019-02-14T00:21:45.426Z,1027.62
2019-02-14T00:22:45.329Z,1027.65
2019-02-14T00:23:45.318Z,1027.62
2019-02-14T00:24:45.272Z,1027.68
2019-02-14T00:25:45.334Z,1027.70
2019-02-14T00:26:45.207Z,1027.71
2019-02-14T00:27:45.240Z,1027.73
2019-02-14T00:28:45.148Z,1027.75
2019-02-14T00:29:45.159Z,1027.74
2019-02-14T00:30:45.077Z,1027.74
2019-02-14T00:31:45.066Z,1027.74
2019-02-14T00:32:45.019Z,1027.74
2019-02-14T00:33:45.085Z,1027.74
2019-02-14T00:34:44.964Z,1027.78
2019-02-14T00:35:44.996Z,1027.72
2019-02-14T00:36:44.894Z,1027.71
2019-02-14T00:37:44.896Z,1027.77
2019-02-14T00:38:44.830Z,1027.71
2019-02-14T00:39:44.926Z,1027.76
2019-02-14T00:40:44.772Z,1027.77
2019-02-14T00:41:44.824Z,1027.77
2019-02-14T00:42:44.712Z,1027.77
2019-02-14T00:43:44.743Z,1027.79
2019-02-14T00:44:44.647Z,1027.78
2019-02-14T00:45:44.765Z,1027.76
2019-02-14T00:46:44.586Z,1027.77
2019-02-14T00:47:44.667Z,1027.74
2019-02-14T00:48:44.520Z,1027.72
2019-02-14T00:49:44.571Z,1027.70
2019-02-14T00:50:44.457Z,1027.71
2019-02-14T00:51:44.473Z,1027.67
2019-02-14T00:52:44.402Z,1027.64
2019-02-14T00:53:44.384Z,1027.68
2019-02-14T00:54:44.337Z,1027.62
2019-02-14T00:55:44.400Z,1027.66
2019-02-14T00:56:44.271Z,1027.61
2019-02-14T00:57:44.309Z,1027.66
2019-02-14T00:58:44.208Z,1027.68
2019-02-14T00:59:44.220Z,1027.66
2019-02-14T01:00:44.146Z,1027.65
2019-02-14T01:01:44.129Z,1027.66
2019-02-14T01:02:44.088Z,1027.63
2019-02-14T01:03:44.143Z,1027.61
2019-02-14T01:04:44.035Z,1027.57
2019-02-14T01:05:44.054Z,1027.63
2019-02-14T01:06:43.956Z,1027.62
2019-02-14T01:07:43.962Z,1027.66
2019-02-14T01:08:43.913Z,1027.67
2019-02-14T01:09:43.975Z,1027.68
2019-02-14T01:10:43.845Z,1027.70
2019-02-14T01:11:43.885Z,1027.70
2019-02-14T01:12:43.783Z,1027.71
2019-02-14T01:13:43.804Z,1027.75
2019-02-14T01:14:43.747Z,1027.66
2019-02-14T01:15:43.712Z,1027.72
2019-02-14T01:16:43.658Z,1027.72
2019-02-14T01:17:43.719Z,1027.69
2019-02-14T01:18:43.594Z,1027.68
2019-02-14T01:19:43.644Z,1027.68
2019-02-14T01:20:43.525Z,1027.66
2019-02-14T01:21:43.546Z,1027.64
2019-02-14T01:22:43.460Z,1027.71
2019-02-14T01:23:43.449Z,1027.72
2019-02-14T01:24:43.408Z,1027.72
2019-02-14T01:25:43.470Z,1027.75
2019-02-14T01:26:43.333Z,1027.68
2019-02-14T01:27:43.392Z,1027.67
2019-02-14T01:28:43.278Z,1027.65
2019-02-14T01:29:43.293Z,1027.64
2019-02-14T01:30:43.215Z,1027.69
2019-02-14T01:31:43.197Z,1027.64
2019-02-14T01:32:43.156Z,1027.66
2019-02-14T01:33:43.215Z,1027.63
2019-02-14T01:34:43.079Z,1027.62
2019-02-14T01:35:43.125Z,1027.61
2019-02-14T01:36:43.022Z,1027.64
2019-02-14T01:37:43.041Z,1027.64
2019-02-14T01:38:42.965Z,1027.65
2019-02-14T01:39:42.940Z,1027.62
2019-02-14T01:40:42.898Z,1027.66
2019-02-14T01:41:42.957Z,1027.63
2019-02-14T01:42:42.837Z,1027.63
2019-02-14T01:43:42.867Z,1027.59
2019-02-14T01:44:42.768Z,1027.59
2019-02-14T01:45:42.773Z,1027.59
2019-02-14T01:46:42.715Z,1027.59
2019-02-14T01:47:42.787Z,1027.56
2019-02-14T01:48:42.651Z,1027.54
2019-02-14T01:49:59.607Z,1027.51
2019-02-14T01:50:42.584Z,1027.51
2019-02-14T02:24:24.034Z,1027.33
2019-02-14T02:25:23.929Z,1027.29
2019-02-14T02:27:17.619Z,1027.30
2019-02-14T02:28:17.666Z,1027.38
2019-02-14T02:29:17.539Z,1027.27
2019-02-14T02:30:17.587Z,1027.32
2019-02-14T02:31:17.477Z,1027.30
2019-02-14T02:32:17.481Z,1027.34
2019-02-14T02:33:17.415Z,1027.31
2019-02-14T02:34:17.495Z,1027.29
2019-02-14T02:35:17.362Z,1027.29
2019-02-14T02:36:17.402Z,1027.31
2019-02-14T02:37:17.291Z,1027.30
2019-02-14T02:38:17.330Z,1027.34
2019-02-14T02:39:17.228Z,1027.35
2019-02-14T02:40:18.251Z,1027.36
2019-02-14T02:41:17.165Z,1027.33
2019-02-14T02:42:17.236Z,1027.38
2019-02-14T02:43:17.109Z,1027.37
2019-02-14T02:44:17.147Z,1027.35
2019-02-14T02:45:17.333Z,1027.32
2019-02-14T02:46:17.057Z,1027.30
2019-02-14T02:47:16.980Z,1027.34
2019-02-14T02:48:16.994Z,1027.38
2019-02-14T02:49:16.914Z,1027.32
2019-02-14T02:50:16.982Z,1027.38
2019-02-14T02:51:16.855Z,1027.34
2019-02-14T02:52:16.893Z,1027.33
2019-02-14T02:53:16.789Z,1027.31
2019-02-14T02:54:16.804Z,1027.32
2019-02-14T02:55:16.720Z,1027.35
2019-02-14T02:56:16.725Z,1027.30
2019-02-14T02:57:16.656Z,1027.33
2019-02-14T02:58:16.728Z,1027.32
2019-02-14T02:59:16.598Z,1027.30
2019-02-14T03:00:16.645Z,1027.31
2019-02-14T03:01:16.546Z,1027.30
2019-02-14T03:02:16.560Z,1027.29
2019-02-14T03:03:16.481Z,1027.34
2019-02-14T03:04:16.567Z,1027.27
2019-02-14T03:05:16.413Z,1027.33
2019-02-14T03:06:16.468Z,1027.37
2019-02-14T03:07:16.352Z,1027.36
2019-02-14T03:08:16.393Z,1027.32
2019-02-14T03:09:16.284Z,1027.37
2019-02-14T03:10:16.304Z,1027.36
2019-02-14T03:11:16.226Z,1027.36
2019-02-14T03:12:16.302Z,1027.42
2019-02-14T03:13:16.175Z,1027.41
2019-02-14T03:14:16.212Z,1027.45
2019-02-14T03:15:16.107Z,1027.47
2019-02-14T03:16:16.123Z,1027.47
2019-02-14T03:17:16.041Z,1027.47
2019-02-14T03:18:16.033Z,1027.48
2019-02-14T03:19:15.975Z,1027.44
2019-02-14T03:20:16.046Z,1027.40
2019-02-14T03:21:15.913Z,1027.42
2019-02-14T03:22:15.958Z,1027.38
2019-02-14T03:23:15.851Z,1027.44
2019-02-14T03:24:15.885Z,1027.45
2019-02-14T03:25:15.784Z,1027.44
2019-02-14T03:26:15.784Z,1027.48
2019-02-14T03:27:15.724Z,1027.44
2019-02-14T03:28:15.801Z,1027.44
2019-02-14T03:29:15.672Z,1027.41
2019-02-14T03:30:15.700Z,1027.45
2019-02-14T03:31:15.608Z,1027.45
2019-02-14T03:32:15.616Z,1027.42
2019-02-14T03:33:17.361Z,1027.44
2019-02-14T04:01:56.911Z,1027.46
2019-02-14T04:02:56.753Z,1027.41
2019-02-14T04:04:50.187Z,1027.38
2019-02-14T04:05:50.233Z,1027.37
2019-02-14T04:06:50.119Z,1027.42
2019-02-14T04:07:50.144Z,1027.43
2019-02-14T04:08:50.054Z,1027.52
2019-02-14T04:09:50.053Z,1027.47
2019-02-14T04:10:49.998Z,1027.48
2019-02-14T04:11:50.071Z,1027.57
2019-02-14T04:12:49.931Z,1027.57
2019-02-14T04:13:49.981Z,1027.57
2019-02-14T04:14:49.868Z,1027.54
2019-02-14T04:15:49.888Z,1027.58
2019-02-14T04:16:49.837Z,1027.58
2019-02-14T04:17:49.799Z,1027.61
2019-02-14T04:18:49.739Z,1027.59
2019-02-14T04:19:49.810Z,1027.54
2019-02-14T04:20:49.677Z,1027.53
2019-02-14T04:21:49.743Z,1027.55
2019-02-14T04:22:49.623Z,1027.54
2019-02-14T04:23:49.629Z,1027.54
2019-02-14T04:24:49.570Z,1027.52
2019-02-14T04:25:49.540Z,1027.54
2019-02-14T04:26:49.489Z,1027.52
2019-02-14T04:27:49.554Z,1027.51
2019-02-14T04:28:49.425Z,1027.53
2019-02-14T04:29:49.468Z,1027.57
2019-02-14T04:30:49.359Z,1027.54
2019-02-14T04:31:49.375Z,1027.54
2019-02-14T04:32:49.300Z,1027.54
2019-02-14T04:33:49.286Z,1027.52
2019-02-14T04:34:49.234Z,1027.55
2019-02-14T04:35:49.306Z,1027.57
2019-02-14T04:36:49.177Z,1027.54
2019-02-14T04:37:49.211Z,1027.59
2019-02-14T04:38:49.109Z,1027.53
2019-02-14T04:39:49.122Z,1027.56
2019-02-14T04:40:49.049Z,1027.48
2019-02-14T04:41:49.025Z,1027.54
2019-02-14T04:42:48.992Z,1027.52
2019-02-14T04:43:49.050Z,1027.57
2019-02-14T04:44:48.922Z,1027.57
2019-02-14T04:45:48.952Z,1027.59
2019-02-14T04:46:48.879Z,1027.55
2019-02-14T04:47:48.964Z,1027.58
2019-02-14T04:48:48.796Z,1027.62
2019-02-14T04:49:48.888Z,1027.59
2019-02-14T04:50:48.734Z,1027.59
2019-02-14T04:51:48.787Z,1027.61
2019-02-14T04:52:48.673Z,1027.61
2019-02-14T04:53:48.698Z,1027.62
2019-02-14T04:54:48.611Z,1027.59
2019-02-14T04:55:48.613Z,1027.60
2019-02-14T04:56:48.540Z,1027.64
2019-02-14T04:57:48.635Z,1027.69
2019-02-14T04:58:48.480Z,1027.68
2019-02-14T04:59:48.535Z,1027.68
2019-02-14T05:00:48.419Z,1027.70
2019-02-14T05:01:48.446Z,1027.73
2019-02-14T05:02:48.352Z,1027.76
2019-02-14T05:03:48.354Z,1027.78
2019-02-14T05:04:48.293Z,1027.79
2019-02-14T05:05:48.367Z,1027.84
2019-02-14T05:06:48.245Z,1027.88
2019-02-14T05:07:48.273Z,1027.88
2019-02-14T05:08:48.161Z,1027.93
2019-02-14T05:09:48.188Z,1027.90
2019-02-14T05:10:48.099Z,1027.93
2019-02-14T05:11:48.102Z,1027.92
2019-02-14T05:12:48.044Z,1027.97
2019-02-14T05:13:48.151Z,1027.95
2019-02-14T05:14:48.007Z,1027.97
2019-02-14T05:15:48.029Z,1027.86
2019-02-14T05:16:47.913Z,1027.85
2019-02-14T05:17:47.942Z,1027.82
2019-02-14T05:18:47.846Z,1027.79
2019-02-14T05:19:47.898Z,1027.79
2019-02-14T05:20:47.789Z,1027.83
2019-02-14T05:21:47.860Z,1027.81
2019-02-14T05:22:47.724Z,1027.83
2019-02-14T05:23:47.766Z,1027.80
2019-02-14T05:24:47.658Z,1027.80
2019-02-14T05:25:47.679Z,1027.82
2019-02-14T05:26:47.594Z,1027.84
2019-02-14T05:27:47.586Z,1027.77
2019-02-14T05:28:47.534Z,1027.79
2019-02-14T05:29:47.598Z,1027.78
2019-02-14T05:30:47.471Z,1027.76
2019-02-14T05:31:47.502Z,1027.76
2019-02-14T05:32:47.399Z,1027.79
2019-02-14T05:33:47.444Z,1027.75
2019-02-14T05:34:47.351Z,1027.82
2019-02-14T05:35:47.337Z,1027.87
2019-02-14T05:36:52.742Z,1027.94
2019-02-14T05:37:47.344Z,1027.97
2019-02-14T05:38:47.215Z,1028.03
2019-02-14T05:39:47.254Z,1028.02
2019-02-14T05:40:47.154Z,1028.14
2019-02-14T05:41:47.164Z,1028.06
2019-02-14T05:42:47.093Z,1028.12
2019-02-14T05:43:47.077Z,1028.14
2019-02-14T05:44:47.032Z,1028.08
2019-02-14T05:45:47.088Z,1028.01
2019-02-14T05:46:46.960Z,1028.04
2019-02-14T05:47:47.001Z,1027.97
2019-02-14T05:48:46.947Z,1027.94
2019-02-14T05:49:46.913Z,1027.88
2019-02-14T05:50:46.840Z,1027.84
2019-02-14T05:51:46.825Z,1027.89
2019-02-14T05:52:46.838Z,1027.94
2019-02-14T05:53:46.841Z,1027.91
2019-02-14T05:54:46.713Z,1027.93
2019-02-14T05:55:46.746Z,1027.97
2019-02-14T05:56:46.653Z,1027.93
2019-02-14T05:57:46.661Z,1027.96
2019-02-14T05:58:46.591Z,1027.98
2019-02-14T05:59:46.566Z,1028.03
2019-02-14T06:00:46.513Z,1028.06
2019-02-14T06:01:46.579Z,1028.02
2019-02-14T06:02:46.468Z,1028.08
2019-02-14T06:03:46.487Z,1028.09
2019-02-14T06:04:46.394Z,1028.10
2019-02-14T06:05:46.395Z,1028.11
2019-02-14T06:06:46.330Z,1028.09
2019-02-14T06:07:46.417Z,1028.10
2019-02-14T06:08:46.358Z,1028.10
2019-02-14T06:09:46.325Z,1028.07
2019-02-14T06:10:46.209Z,1028.09
2019-02-14T06:11:46.234Z,1028.12
2019-02-14T06:12:46.135Z,1028.08
2019-02-14T06:13:46.140Z,1028.11
2019-02-14T06:14:46.079Z,1028.05
2019-02-14T06:15:46.156Z,1028.09
2019-02-14T06:16:46.023Z,1028.09
2019-02-14T06:17:46.073Z,1028.13
2019-02-14T06:18:45.957Z,1028.12
2019-02-14T06:19:45.978Z,1028.08
2019-02-14T06:20:45.890Z,1028.11
2019-02-14T06:21:45.889Z,1028.13
2019-02-14T06:22:45.830Z,1028.09
2019-02-14T06:23:45.910Z,1028.08
2019-02-14T06:24:45.764Z,1028.17
2019-02-14T06:25:45.821Z,1028.12
2019-02-14T06:26:45.706Z,1028.12
2019-02-14T06:27:45.720Z,1028.11
2019-02-14T06:28:45.631Z,1028.19
2019-02-14T06:29:45.636Z,1028.22
2019-02-14T06:30:45.573Z,1028.22
2019-02-14T06:31:45.650Z,1028.25
2019-02-14T06:32:45.520Z,1028.24
2019-02-14T06:33:45.551Z,1028.28
2019-02-14T06:34:45.450Z,1028.24
2019-02-14T06:35:45.478Z,1028.28
2019-02-14T06:36:45.385Z,1028.35
2019-02-14T06:37:45.377Z,1028.29
2019-02-14T06:38:45.320Z,1028.30
2019-02-14T06:39:45.347Z,1028.37
2019-02-14T06:40:45.370Z,1028.34
2019-02-14T06:41:45.233Z,1028.37
2019-02-14T06:42:45.283Z,1028.38
2019-02-14T06:43:45.166Z,1028.42
2019-02-14T06:44:45.195Z,1028.43
2019-02-14T06:45:45.101Z,1028.47
2019-02-14T06:46:45.105Z,1028.50
2019-02-14T06:47:45.031Z,1028.50
2019-02-14T06:48:45.121Z,1028.50
2019-02-14T06:49:44.992Z,1028.60
2019-02-14T06:50:45.137Z,1028.55
2019-02-14T06:51:44.903Z,1028.56
2019-02-14T06:52:45.049Z,1028.52
2019-02-14T06:53:44.853Z,1028.53
2019-02-14T06:54:44.956Z,1028.51
2019-02-14T06:55:44.783Z,1028.47
2019-02-14T06:56:44.782Z,1028.41
2019-02-14T06:57:44.722Z,1028.42
2019-02-14T06:58:44.796Z,1028.39
2019-02-14T06:59:44.669Z,1028.36
2019-02-14T07:00:44.708Z,1028.37
2019-02-14T07:01:44.600Z,1028.39
2019-02-14T07:02:44.625Z,1028.40
2019-02-14T07:03:44.528Z,1028.39
2019-02-14T07:04:44.536Z,1028.40
2019-02-14T07:05:44.475Z,1028.46
2019-02-14T07:06:44.565Z,1028.46
2019-02-14T07:07:44.399Z,1028.49
2019-02-14T07:08:44.469Z,1028.50
2019-02-14T07:09:44.341Z,1028.53
2019-02-14T07:10:44.370Z,1028.53
2019-02-14T07:11:44.273Z,1028.54
2019-02-14T07:12:44.276Z,1028.49
2019-02-14T07:13:44.216Z,1028.54
2019-02-14T07:14:44.183Z,1028.59
2019-02-14T07:15:44.148Z,1028.59
2019-02-14T07:16:44.114Z,1028.67
2019-02-14T07:17:44.102Z,1028.69
2019-02-14T07:18:44.048Z,1028.69
2019-02-14T07:19:44.029Z,1028.68
2019-02-14T07:20:44.005Z,1028.72
2019-02-14T07:21:43.971Z,1028.71
2019-02-14T07:22:43.931Z,1028.73
2019-02-14T07:23:43.896Z,1028.69
2019-02-14T07:24:43.863Z,1028.75
2019-02-14T07:25:43.882Z,1028.72
2019-02-14T07:26:43.798Z,1028.72
2019-02-14T07:27:43.770Z,1028.74
2019-02-14T07:28:43.738Z,1028.71
2019-02-14T07:29:43.706Z,1028.69
2019-02-14T07:30:43.670Z,1028.71
2019-02-14T07:31:43.726Z,1028.71
2019-02-14T07:32:43.626Z,1028.69
2019-02-14T07:33:43.590Z,1028.70
2019-02-14T07:34:43.642Z,1028.73
2019-02-14T07:35:43.512Z,1028.70
2019-02-14T07:36:43.487Z,1028.66
2019-02-14T07:37:43.452Z,1028.66
2019-02-14T07:38:43.418Z,1028.65
2019-02-14T07:39:43.388Z,1028.70
2019-02-14T07:40:43.358Z,1028.64
2019-02-14T07:41:43.324Z,1028.59
2019-02-14T07:42:43.297Z,1028.63
2019-02-14T07:43:43.274Z,1028.60
2019-02-14T07:44:43.228Z,1028.58
2019-02-14T07:45:43.198Z,1028.56
2019-02-14T07:46:43.164Z,1028.51
2019-02-14T07:47:43.157Z,1028.49
2019-02-14T07:48:43.106Z,1028.46
2019-02-14T07:49:43.081Z,1028.47
2019-02-14T07:50:43.034Z,1028.45
2019-02-14T07:51:43.009Z,1028.42
2019-02-14T07:52:42.971Z,1028.41
2019-02-14T07:53:42.942Z,1028.40
2019-02-14T07:54:42.908Z,1028.37
2019-02-14T07:55:42.883Z,1028.39
2019-02-14T07:56:42.856Z,1028.43
2019-02-14T07:57:42.823Z,1028.37
2019-02-14T07:58:42.779Z,1028.42
2019-02-14T07:59:42.759Z,1028.38
2019-02-14T08:00:44.704Z,1028.40
2019-02-14T08:02:07.311Z,1028.40
2019-02-14T08:02:42.655Z,1028.45
2019-02-14T09:37:01.426Z,1028.89
2019-02-14T09:38:03.654Z,1028.90
2019-02-14T09:39:01.590Z,1028.88
2019-02-14T09:40:01.259Z,1028.90
2019-02-14T09:41:01.311Z,1028.88
2019-02-14T09:42:01.191Z,1028.89
2019-02-14T09:43:01.241Z,1028.81
2019-02-14T09:44:01.139Z,1028.79
2019-02-14T09:45:01.141Z,1028.81
2019-02-14T09:46:01.086Z,1028.80
2019-02-14T09:47:01.154Z,1028.76
2019-02-14T09:48:01.014Z,1028.75
2019-02-14T09:49:01.079Z,1028.77
2019-02-14T09:50:00.957Z,1028.75
2019-02-14T09:51:00.975Z,1028.72
2019-02-14T09:52:00.882Z,1028.78
2019-02-14T09:53:00.972Z,1028.74
2019-02-14T09:54:00.825Z,1028.78
2019-02-14T09:55:00.785Z,1028.80
2019-02-14T09:56:00.759Z,1028.81
2019-02-14T09:57:00.764Z,1028.80
2019-02-14T09:58:00.729Z,1028.81
2019-02-14T09:59:00.679Z,1028.79
2019-02-14T10:00:00.769Z,1028.80
2019-02-14T10:01:00.600Z,1028.78
2019-02-14T10:02:00.652Z,1028.75
2019-02-14T10:03:00.545Z,1028.78
2019-02-14T10:04:00.573Z,1028.78
2019-02-14T10:05:00.491Z,1028.79
2019-02-14T10:06:00.495Z,1028.74
2019-02-14T10:07:00.410Z,1028.68
2019-02-14T10:08:00.387Z,1028.69
2019-02-14T10:09:00.839Z,1028.66
2019-02-14T10:10:00.355Z,1028.64
2019-02-14T10:11:08.352Z,1028.61
2019-02-14T10:12:00.267Z,1028.60
2019-02-14T10:13:37.854Z,1028.59
2019-02-14T10:14:00.196Z,1028.58
2019-02-14T10:15:00.302Z,1028.53
2019-02-14T10:16:06.840Z,1028.48
2019-02-14T10:17:00.102Z,1028.47
2019-02-14T10:18:36.865Z,1028.47
2019-02-14T10:19:00.060Z,1028.43
2019-02-14T10:20:00.000Z,1028.39
2019-02-14T10:21:01.047Z,1028.40
2019-02-14T10:21:59.972Z,1028.36
2019-02-14T11:42:30.127Z,1028.56
2019-02-14T11:43:28.261Z,1028.55
2019-02-14T11:44:28.246Z,1028.54
2019-02-14T11:48:50.424Z,1028.53
2019-02-14T11:49:49.859Z,1028.54
2019-02-14T11:50:48.741Z,1028.56
2019-02-14T11:51:48.705Z,1028.58
2019-02-14T11:52:48.681Z,1028.57
2019-02-14T11:53:48.658Z,1028.57
2019-02-14T11:54:48.671Z,1028.60
2019-02-14T11:55:48.592Z,1028.59
2019-02-14T11:56:48.558Z,1028.53
2019-02-14T11:57:48.531Z,1028.54
2019-02-14T11:58:48.498Z,1028.51
2019-02-14T11:59:48.466Z,1028.51
2019-02-14T12:00:48.463Z,1028.49
2019-02-14T12:01:55.146Z,1028.45
2019-02-14T12:02:55.010Z,1028.45
2019-02-14T12:03:48.347Z,1028.41
2019-02-14T12:04:48.320Z,1028.39
2019-02-14T12:05:48.337Z,1028.41
2019-02-14T12:06:48.322Z,1028.41
2019-02-14T12:07:48.342Z,1028.39
2019-02-14T12:08:59.413Z,1028.36
2019-02-14T12:09:48.253Z,1028.38
2019-02-14T12:10:48.146Z,1028.37
2019-02-14T12:11:48.121Z,1028.35
2019-02-14T12:12:48.092Z,1028.31
2019-02-14T12:13:48.053Z,1028.27
2019-02-14T12:14:48.038Z,1028.32
2019-02-14T12:15:47.988Z,1028.28
2019-02-14T12:16:47.958Z,1028.28
2019-02-14T12:17:47.927Z,1028.23
2019-02-14T12:18:47.898Z,1028.25
2019-02-14T12:19:48.972Z,1028.26
2019-02-14T12:20:48.029Z,1028.23
2019-02-14T12:21:47.811Z,1028.26
2019-02-14T12:22:47.785Z,1028.23
2019-02-14T12:23:47.751Z,1028.23
2019-02-14T12:24:47.719Z,1028.24
2019-02-14T12:25:47.690Z,1028.28
2019-02-14T12:26:47.704Z,1028.26
2019-02-14T12:27:47.626Z,1028.23
2019-02-14T12:28:47.601Z,1028.23
2019-02-14T12:29:47.577Z,1028.22
2019-02-14T12:30:47.538Z,1028.23
2019-02-14T12:31:47.513Z,1028.21
2019-02-14T12:32:47.542Z,1028.21
2019-02-14T12:33:47.449Z,1028.17
2019-02-14T12:34:47.420Z,1028.16
2019-02-14T12:35:47.392Z,1028.19
2019-02-14T12:36:47.370Z,1028.14
2019-02-14T12:37:47.333Z,1028.15
2019-02-14T12:38:47.299Z,1028.18
2019-02-14T12:39:47.268Z,1028.19
2019-02-14T12:40:47.251Z,1028.16
2019-02-14T12:41:47.215Z,1028.12
2019-02-14T12:42:47.183Z,1028.06
2019-02-14T12:43:47.153Z,1028.04
2019-02-14T12:44:47.128Z,1028.04
2019-02-14T12:45:47.096Z,1028.00
2019-02-14T12:46:47.067Z,1027.97
2019-02-14T12:47:47.040Z,1027.99
2019-02-14T12:48:47.009Z,1028.02
2019-02-14T12:49:47.086Z,1027.94
2019-02-14T12:50:46.947Z,1027.96
2019-02-14T12:51:46.920Z,1027.96
2019-02-14T12:52:46.898Z,1027.94
2019-02-14T12:53:46.859Z,1027.95
2019-02-14T12:54:46.833Z,1027.94
2019-02-14T12:55:47.764Z,1027.98
2019-02-14T12:56:46.835Z,1027.96
2019-02-14T12:57:46.756Z,1027.97
2019-02-14T12:58:46.714Z,1027.90
2019-02-14T12:59:46.685Z,1027.94
2019-02-14T13:00:46.650Z,1027.92
2019-02-14T13:01:46.623Z,1027.93
2019-02-14T13:02:46.664Z,1027.91
2019-02-14T13:03:46.568Z,1027.92
2019-02-14T13:04:46.648Z,1027.88
2019-02-14T13:05:46.506Z,1027.88
2019-02-14T13:06:46.626Z,1027.92
2019-02-14T13:07:46.465Z,1027.90
2019-02-14T13:08:46.419Z,1027.86
2019-02-14T13:09:46.389Z,1027.88
2019-02-14T13:10:46.357Z,1027.85
2019-02-14T13:11:46.327Z,1027.82
2019-02-14T13:12:46.302Z,1027.81
2019-02-14T13:13:50.133Z,1027.80
2019-02-14T13:14:46.246Z,1027.80
2019-02-14T13:15:46.257Z,1027.81
2019-02-14T13:16:46.181Z,1027.78
2019-02-14T13:17:46.151Z,1027.79
2019-02-14T13:18:46.129Z,1027.79
2019-02-14T13:19:46.093Z,1027.81
2019-02-14T13:20:47.927Z,1027.77
2019-02-14T13:21:54.034Z,1027.81
2019-02-14T13:22:46.006Z,1027.81
2019-02-14T13:23:54.046Z,1027.77
2019-02-14T13:24:45.943Z,1027.79
2019-02-14T14:58:19.803Z,1027.21
2019-02-14T14:59:13.748Z,1027.18
2019-02-14T15:00:13.816Z,1027.22
2019-02-14T15:01:13.718Z,1027.19
2019-02-14T15:02:13.717Z,1027.15
2019-02-14T15:03:13.626Z,1027.16
2019-02-14T15:04:13.612Z,1027.17
2019-02-14T15:05:13.620Z,1027.15
2019-02-14T15:06:13.652Z,1027.16
2019-02-14T15:07:13.523Z,1027.15
2019-02-14T15:08:13.487Z,1027.09
2019-02-14T15:09:13.461Z,1027.09
2019-02-14T15:10:13.438Z,1027.08
2019-02-14T15:11:13.404Z,1027.08
2019-02-14T15:12:13.380Z,1027.07
2019-02-14T15:13:13.342Z,1027.05
2019-02-14T15:14:13.336Z,1027.04
2019-02-14T15:15:13.334Z,1027.04
2019-02-14T15:16:13.263Z,1027.02
2019-02-14T15:17:13.237Z,1027.04
2019-02-14T15:18:13.270Z,1027.06
2019-02-14T15:19:13.176Z,1027.06
2019-02-14T15:20:13.145Z,1027.11
2019-02-14T15:21:13.131Z,1027.06
2019-02-14T15:22:13.093Z,1027.06
2019-02-14T15:23:13.059Z,1027.05
2019-02-14T15:24:13.042Z,1027.08
2019-02-14T15:25:13.006Z,1027.03
2019-02-14T15:26:12.981Z,1027.05
2019-02-14T15:27:12.952Z,1027.01
2019-02-14T15:28:12.923Z,1027.05
2019-02-14T15:29:12.890Z,1027.03
2019-02-14T15:30:12.862Z,1027.01
2019-02-14T15:31:12.835Z,1027.01
2019-02-14T15:32:12.835Z,1027.02
2019-02-14T15:33:12.778Z,1027.03
2019-02-14T15:34:12.753Z,1027.03
2019-02-14T15:35:12.751Z,1027.03
2019-02-14T15:36:12.720Z,1027.01
2019-02-14T15:37:13.353Z,1026.96
2019-02-14T15:38:12.639Z,1026.95
2019-02-14T15:39:12.643Z,1026.98
2019-02-14T15:40:12.570Z,1026.92
2019-02-14T15:41:12.549Z,1026.95
2019-02-14T15:42:12.521Z,1026.95
2019-02-14T15:43:12.554Z,1026.92
2019-02-14T15:44:12.462Z,1026.93
2019-02-14T15:45:29.490Z,1026.93
2019-02-14T15:46:12.396Z,1026.87
2019-02-14T15:47:12.475Z,1026.89
2019-02-14T15:48:12.347Z,1026.92
2019-02-14T15:49:13.412Z,1026.88
2019-02-14T15:50:12.302Z,1026.88
2019-02-14T15:51:21.005Z,1026.85
2019-02-14T15:52:12.233Z,1026.90
2019-02-14T15:53:21.534Z,1026.86
2019-02-14T15:54:12.178Z,1026.88
2019-02-14T15:55:19.443Z,1026.87
2019-02-14T15:56:12.133Z,1026.88
2019-02-14T15:57:33.142Z,1026.86
2019-02-14T15:58:12.106Z,1026.84
2019-02-14T15:59:13.067Z,1026.84
2019-02-14T16:00:12.025Z,1026.82
2019-02-14T16:01:13.858Z,1026.85
2019-02-14T16:02:11.979Z,1026.83
2019-02-14T16:04:11.896Z,1026.83
2019-02-14T16:05:14.628Z,1026.80
2019-02-14T16:06:11.832Z,1026.79
2019-02-14T16:07:19.475Z,1026.78
2019-02-14T16:08:11.828Z,1026.74
2019-02-14T16:09:12.278Z,1026.80
2019-02-14T16:10:18.053Z,1026.77
2019-02-14T16:11:12.393Z,1026.76
2019-02-14T16:12:11.689Z,1026.81
2019-02-14T16:13:12.764Z,1026.82
2019-02-14T16:14:11.607Z,1026.81
2019-02-14T16:15:11.579Z,1026.88
2019-02-14T16:16:11.549Z,1026.90
2019-02-14T16:17:13.783Z,1026.89
2019-02-14T16:18:11.483Z,1026.92
2019-02-14T16:19:13.129Z,1026.87
2019-02-14T16:20:11.429Z,1026.87
2019-02-14T16:21:12.511Z,1026.86
2019-02-14T16:22:11.375Z,1026.91
2019-02-14T16:24:11.311Z,1026.88
2019-02-14T16:25:11.290Z,1026.85
2019-02-14T16:26:18.992Z,1026.85
2019-02-14T16:27:11.247Z,1026.86
2019-02-14T16:28:13.746Z,1026.87
2019-02-14T16:29:11.180Z,1026.84
2019-02-14T16:31:11.128Z,1026.83
2019-02-14T16:32:33.178Z,1026.85
2019-02-14T16:33:11.053Z,1026.89
2019-02-14T16:34:18.025Z,1026.83
2019-02-14T16:35:10.995Z,1026.81
2019-02-14T16:36:13.019Z,1026.85
2019-02-14T16:37:10.946Z,1026.83
2019-02-14T16:39:51.587Z,1026.81
2019-02-14T16:40:43.188Z,1026.84
2019-02-14T16:41:43.186Z,1026.86
2019-02-14T16:42:50.212Z,1026.85
2019-02-14T16:43:43.103Z,1026.79
2019-02-14T16:45:19.100Z,1026.77
2019-02-14T16:45:43.040Z,1026.77
2019-02-14T16:46:43.010Z,1026.77
2019-02-14T18:20:39.468Z,1026.98
2019-02-14T19:08:01.429Z,1026.90
2019-02-14T19:08:59.507Z,1026.89
2019-02-14T19:09:59.521Z,1026.92
2019-02-14T19:10:59.450Z,1026.88
2019-02-14T19:11:59.425Z,1026.87
2019-02-14T19:12:59.395Z,1026.88
2019-02-14T19:13:59.421Z,1026.87
2019-02-14T19:14:59.334Z,1026.87
2019-02-14T19:15:59.295Z,1026.87
2019-02-14T19:16:59.282Z,1026.84
2019-02-14T19:17:59.275Z,1026.82
2019-02-14T19:18:59.224Z,1026.85
2019-02-14T19:19:59.186Z,1026.79
2019-02-14T19:20:59.277Z,1026.84
2019-02-14T19:21:59.234Z,1026.80
2019-02-14T19:22:59.159Z,1026.83
2019-02-14T19:23:59.064Z,1026.82
2019-02-14T19:24:59.051Z,1026.82
2019-02-14T19:25:59.021Z,1026.79
2019-02-14T19:26:59.004Z,1026.81
2019-02-14T19:27:58.977Z,1026.89
2019-02-14T19:28:59.095Z,1026.88
2019-02-14T19:29:58.907Z,1026.88
2019-02-14T19:30:58.881Z,1026.85
2019-02-14T19:31:58.849Z,1026.88
2019-02-14T19:32:58.824Z,1026.86
2019-02-14T19:33:58.778Z,1026.83
2019-02-14T19:34:58.742Z,1026.86
2019-02-14T19:35:58.729Z,1026.84
2019-02-14T19:36:58.692Z,1026.79
2019-02-14T19:37:58.660Z,1026.82
2019-02-14T19:38:58.640Z,1026.81
2019-02-14T19:39:58.598Z,1026.80
2019-02-14T19:40:58.591Z,1026.74
2019-02-14T19:41:58.545Z,1026.75
2019-02-14T19:42:58.519Z,1026.75
2019-02-14T19:43:58.491Z,1026.73
2019-02-14T19:44:58.466Z,1026.73
2019-02-14T19:45:58.425Z,1026.71
2019-02-14T19:46:58.429Z,1026.72
2019-02-14T19:47:58.373Z,1026.71
2019-02-14T19:48:58.324Z,1026.73
2019-02-14T19:49:58.318Z,1026.77
2019-02-14T19:50:58.275Z,1026.71
2019-02-14T19:51:58.273Z,1026.72
2019-02-14T19:52:58.268Z,1026.73
2019-02-14T19:53:58.228Z,1026.71
2019-02-14T19:54:58.147Z,1026.69
2019-02-14T19:55:58.136Z,1026.70
2019-02-14T19:56:58.090Z,1026.71
2019-02-14T19:57:59.317Z,1026.65
2019-02-14T19:58:58.043Z,1026.68
2019-02-14T19:59:58.044Z,1026.64